sensor_id;sensor_type;location;lat;lon;timestamp;pressure;altitude;pressure_sealevel;temperature;humidity
29385;BME280;16367;48.736;9.218;2024-01-25T00:00:18;-23459.59;;;9.21;92.61
29385;BME280;16367;48.736;9.218;2024-01-25T00:02:21;-23456.13;;;9.10;93.26
29385;BME280;16367;48.736;9.218;2024-01-25T00:04:24;-23459.28;;;9.20;93.23
29385;BME280;16367;48.736;9.218;2024-01-25T00:06:28;-23462.13;;;9.29;92.60
29385;BME280;16367;48.736;9.218;2024-01-25T00:08:31;-23459.28;;;9.20;93.07
29385;BME280;16367;48.736;9.218;2024-01-25T00:10:34;-23462.47;;;9.30;92.75
29385;BME280;16367;48.736;9.218;2024-01-25T00:12:37;-23462.13;;;9.29;92.28
29385;BME280;16367;48.736;9.218;2024-01-25T00:14:40;-23458.81;;;9.19;94.31
29385;BME280;16367;48.736;9.218;2024-01-25T00:16:42;-23460.56;;;9.24;93.38
29385;BME280;16367;48.736;9.218;2024-01-25T00:18:45;-23462.63;;;9.31;93.54
29385;BME280;16367;48.736;9.218;2024-01-25T00:20:48;-23462.94;;;9.32;93.08
29385;BME280;16367;48.736;9.218;2024-01-25T00:22:52;-23463.09;;;9.32;93.63
29385;BME280;16367;48.736;9.218;2024-01-25T00:24:55;-23462.78;;;9.31;94.10
29385;BME280;16367;48.736;9.218;2024-01-25T00:26:57;-23462.47;;;9.30;94.77
29385;BME280;16367;48.736;9.218;2024-01-25T00:29:00;-23461.66;;;9.28;94.91
29385;BME280;16367;48.736;9.218;2024-01-25T00:31:03;-23463.09;;;9.32;95.25
29385;BME280;16367;48.736;9.218;2024-01-25T00:33:06;-23464.38;;;9.36;95.25
29385;BME280;16367;48.736;9.218;2024-01-25T00:35:10;-23465.47;;;9.40;95.38
29385;BME280;16367;48.736;9.218;2024-01-25T00:37:15;-23465.47;;;9.40;95.28
29385;BME280;16367;48.736;9.218;2024-01-25T00:39:20;-23465.63;;;9.40;95.99
29385;BME280;16367;48.736;9.218;2024-01-25T00:41:23;-23465.31;;;9.39;95.82
29385;BME280;16367;48.736;9.218;2024-01-25T00:43:27;-23462.47;;;9.30;96.84
29385;BME280;16367;48.736;9.218;2024-01-25T00:45:30;-23466.91;;;9.44;95.92
29385;BME280;16367;48.736;9.218;2024-01-25T00:47:34;-23465.78;;;9.41;96.77
29385;BME280;16367;48.736;9.218;2024-01-25T00:49:36;-23464.69;;;9.37;97.07
29385;BME280;16367;48.736;9.218;2024-01-25T00:51:45;-23466.91;;;9.44;96.90
29385;BME280;16367;48.736;9.218;2024-01-25T00:53:49;-23467.84;;;9.47;96.15
29385;BME280;16367;48.736;9.218;2024-01-25T00:55:54;-23464.53;;;9.37;96.95
29385;BME280;16367;48.736;9.218;2024-01-25T00:57:57;-23463.72;;;9.34;97.58
29385;BME280;16367;48.736;9.218;2024-01-25T01:00:02;-23462.94;;;9.32;97.60
29385;BME280;16367;48.736;9.218;2024-01-25T01:02:10;-23464.03;;;9.35;97.36
29385;BME280;16367;48.736;9.218;2024-01-25T01:04:14;-23461.19;;;9.26;98.72
29385;BME280;16367;48.736;9.218;2024-01-25T01:06:18;-23462.63;;;9.31;98.77
29385;BME280;16367;48.736;9.218;2024-01-25T01:08:21;-23463.09;;;9.32;98.73
29385;BME280;16367;48.736;9.218;2024-01-25T01:10:24;-23460.25;;;9.23;99.09
29385;BME280;16367;48.736;9.218;2024-01-25T01:12:28;-23461.03;;;9.26;98.96
29385;BME280;16367;48.736;9.218;2024-01-25T01:14:33;-23464.84;;;9.38;98.38
29385;BME280;16367;48.736;9.218;2024-01-25T01:16:37;-23465.94;;;9.41;98.10
29385;BME280;16367;48.736;9.218;2024-01-25T01:18:39;-23466.91;;;9.44;97.52
29385;BME280;16367;48.736;9.218;2024-01-25T01:20:42;-23461.97;;;9.29;98.14
29385;BME280;16367;48.736;9.218;2024-01-25T01:22:45;-23462.47;;;9.30;98.49
29385;BME280;16367;48.736;9.218;2024-01-25T01:24:48;-23461.50;;;9.27;98.63
29385;BME280;16367;48.736;9.218;2024-01-25T01:26:51;-23462.94;;;9.32;98.70
29385;BME280;16367;48.736;9.218;2024-01-25T01:28:55;-23462.78;;;9.31;98.92
29385;BME280;16367;48.736;9.218;2024-01-25T01:30:58;-23465.16;;;9.39;98.60
29385;BME280;16367;48.736;9.218;2024-01-25T01:33:01;-23464.38;;;9.36;98.89
29385;BME280;16367;48.736;9.218;2024-01-25T01:35:05;-23461.97;;;9.29;99.02
29385;BME280;16367;48.736;9.218;2024-01-25T01:37:08;-23463.09;;;9.32;98.52
29385;BME280;16367;48.736;9.218;2024-01-25T01:39:11;-23460.09;;;9.23;99.29
29385;BME280;16367;48.736;9.218;2024-01-25T01:41:14;-23461.81;;;9.28;98.70
29385;BME280;16367;48.736;9.218;2024-01-25T01:43:20;-23464.84;;;9.38;98.49
29385;BME280;16367;48.736;9.218;2024-01-25T01:45:26;-23461.19;;;9.26;98.47
29385;BME280;16367;48.736;9.218;2024-01-25T01:47:29;-23463.56;;;9.34;99.19
29385;BME280;16367;48.736;9.218;2024-01-25T01:49:32;-23459.75;;;9.22;99.23
29385;BME280;16367;48.736;9.218;2024-01-25T01:51:35;-23457.38;;;9.14;99.30
29385;BME280;16367;48.736;9.218;2024-01-25T01:53:39;-23458.19;;;9.17;98.44
29385;BME280;16367;48.736;9.218;2024-01-25T01:55:42;-23459.91;;;9.22;99.10
29385;BME280;16367;48.736;9.218;2024-01-25T01:57:46;-23460.41;;;9.24;98.32
29385;BME280;16367;48.736;9.218;2024-01-25T01:59:49;-23460.41;;;9.24;97.29
29385;BME280;16367;48.736;9.218;2024-01-25T02:01:54;-23459.28;;;9.20;97.25
29385;BME280;16367;48.736;9.218;2024-01-25T02:03:57;-23457.22;;;9.14;98.11
29385;BME280;16367;48.736;9.218;2024-01-25T02:06:00;-23458.81;;;9.19;97.74
29385;BME280;16367;48.736;9.218;2024-01-25T02:08:05;-23456.75;;;9.12;98.13
29385;BME280;16367;48.736;9.218;2024-01-25T02:10:08;-23457.69;;;9.15;97.58
29385;BME280;16367;48.736;9.218;2024-01-25T02:12:10;-23459.28;;;9.20;97.17
29385;BME280;16367;48.736;9.218;2024-01-25T02:14:13;-23458.03;;;9.16;97.54
29385;BME280;16367;48.736;9.218;2024-01-25T02:16:15;-23454.06;;;9.04;98.43
29385;BME280;16367;48.736;9.218;2024-01-25T02:18:20;-23459.75;;;9.22;97.86
29385;BME280;16367;48.736;9.218;2024-01-25T02:20:24;-23455.78;;;9.09;98.19
29385;BME280;16367;48.736;9.218;2024-01-25T02:22:29;-23457.69;;;9.15;97.35
29385;BME280;16367;48.736;9.218;2024-01-25T02:24:31;-23457.22;;;9.14;97.62
29385;BME280;16367;48.736;9.218;2024-01-25T02:26:35;-23459.13;;;9.20;97.33
29385;BME280;16367;48.736;9.218;2024-01-25T02:28:38;-23457.69;;;9.15;97.00
29385;BME280;16367;48.736;9.218;2024-01-25T02:30:41;-23456.75;;;9.12;96.92
29385;BME280;16367;48.736;9.218;2024-01-25T02:32:42;-23455.63;;;9.09;97.87
29385;BME280;16367;48.736;9.218;2024-01-25T02:34:45;-23458.03;;;9.16;97.14
29385;BME280;16367;48.736;9.218;2024-01-25T02:36:48;-23458.03;;;9.16;97.38
29385;BME280;16367;48.736;9.218;2024-01-25T02:38:52;-23455.16;;;9.07;97.24
29385;BME280;16367;48.736;9.218;2024-01-25T02:40:55;-23455.78;;;9.09;97.13
29385;BME280;16367;48.736;9.218;2024-01-25T02:42:58;-23452.47;;;8.98;97.36
29385;BME280;16367;48.736;9.218;2024-01-25T02:45:00;-23451.03;;;8.94;97.09
29385;BME280;16367;48.736;9.218;2024-01-25T02:47:03;-23451.34;;;8.95;97.83
29385;BME280;16367;48.736;9.218;2024-01-25T02:49:06;-23451.34;;;8.95;97.03
29385;BME280;16367;48.736;9.218;2024-01-25T02:51:09;-23453.56;;;9.02;97.26
29385;BME280;16367;48.736;9.218;2024-01-25T02:53:12;-23450.88;;;8.93;96.99
29385;BME280;16367;48.736;9.218;2024-01-25T02:55:18;-23451.84;;;8.96;95.95
29385;BME280;16367;48.736;9.218;2024-01-25T02:57:21;-23450.56;;;8.92;96.27
29385;BME280;16367;48.736;9.218;2024-01-25T02:59:24;-23448.66;;;8.86;96.91
29385;BME280;16367;48.736;9.218;2024-01-25T03:01:27;-23448.50;;;8.86;97.23
29385;BME280;16367;48.736;9.218;2024-01-25T03:03:30;-23448.19;;;8.85;97.31
29385;BME280;16367;48.736;9.218;2024-01-25T03:05:32;-23446.91;;;8.81;97.46
29385;BME280;16367;48.736;9.218;2024-01-25T03:07:36;-23445.66;;;8.77;98.07
29385;BME280;16367;48.736;9.218;2024-01-25T03:09:38;-23445.31;;;8.76;97.76
29385;BME280;16367;48.736;9.218;2024-01-25T03:11:42;-23449.44;;;8.89;97.81
29385;BME280;16367;48.736;9.218;2024-01-25T03:13:45;-23451.03;;;8.94;97.58
29385;BME280;16367;48.736;9.218;2024-01-25T03:15:48;-23445.16;;;8.75;98.81
29385;BME280;16367;48.736;9.218;2024-01-25T03:17:49;-23445.97;;;8.78;98.74
29385;BME280;16367;48.736;9.218;2024-01-25T03:19:52;-23446.13;;;8.78;98.22
29385;BME280;16367;48.736;9.218;2024-01-25T03:21:54;-23447.53;;;8.83;98.38
29385;BME280;16367;48.736;9.218;2024-01-25T03:23:57;-23443.75;;;8.71;99.05
29385;BME280;16367;48.736;9.218;2024-01-25T03:26:01;-23446.91;;;8.81;99.25
29385;BME280;16367;48.736;9.218;2024-01-25T03:28:06;-23444.22;;;8.72;99.15
29385;BME280;16367;48.736;9.218;2024-01-25T03:30:09;-23445.00;;;8.75;99.07
29385;BME280;16367;48.736;9.218;2024-01-25T03:32:12;-23443.41;;;8.70;99.64
29385;BME280;16367;48.736;9.218;2024-01-25T03:34:15;-23445.66;;;8.77;99.44
29385;BME280;16367;48.736;9.218;2024-01-25T03:36:18;-23444.06;;;8.72;100.00
29385;BME280;16367;48.736;9.218;2024-01-25T03:38:21;-23444.53;;;8.73;100.00
29385;BME280;16367;48.736;9.218;2024-01-25T03:40:23;-23441.84;;;8.65;99.56
29385;BME280;16367;48.736;9.218;2024-01-25T03:42:26;-23443.09;;;8.69;100.00
29385;BME280;16367;48.736;9.218;2024-01-25T03:44:30;-23446.59;;;8.80;99.97
29385;BME280;16367;48.736;9.218;2024-01-25T03:46:32;-23443.41;;;8.70;100.00
29385;BME280;16367;48.736;9.218;2024-01-25T03:48:35;-23440.72;;;8.61;100.00
29385;BME280;16367;48.736;9.218;2024-01-25T03:50:38;-23440.72;;;8.61;100.00
29385;BME280;16367;48.736;9.218;2024-01-25T03:52:40;-23441.19;;;8.63;100.00
29385;BME280;16367;48.736;9.218;2024-01-25T03:54:43;-23437.72;;;8.52;100.00
29385;BME280;16367;48.736;9.218;2024-01-25T03:56:46;-23445.66;;;8.77;100.00
29385;BME280;16367;48.736;9.218;2024-01-25T03:58:48;-23439.13;;;8.56;100.00
29385;BME280;16367;48.736;9.218;2024-01-25T04:00:52;-23437.72;;;8.52;100.00
29385;BME280;16367;48.736;9.218;2024-01-25T04:02:55;-23440.88;;;8.62;100.00
29385;BME280;16367;48.736;9.218;2024-01-25T04:04:57;-23440.72;;;8.61;100.00
29385;BME280;16367;48.736;9.218;2024-01-25T04:07:00;-23442.47;;;8.67;100.00
29385;BME280;16367;48.736;9.218;2024-01-25T04:09:03;-23442.47;;;8.67;100.00
29385;BME280;16367;48.736;9.218;2024-01-25T04:11:05;-23440.41;;;8.60;100.00
29385;BME280;16367;48.736;9.218;2024-01-25T04:13:09;-23443.25;;;8.69;100.00
29385;BME280;16367;48.736;9.218;2024-01-25T04:15:12;-23435.97;;;8.46;100.00
29385;BME280;16367;48.736;9.218;2024-01-25T04:17:16;-23438.19;;;8.53;100.00
29385;BME280;16367;48.736;9.218;2024-01-25T04:19:19;-23439.28;;;8.57;100.00
29385;BME280;16367;48.736;9.218;2024-01-25T04:21:22;-23438.34;;;8.54;100.00
29385;BME280;16367;48.736;9.218;2024-01-25T04:23:24;-23437.22;;;8.50;100.00
29385;BME280;16367;48.736;9.218;2024-01-25T04:25:26;-23438.03;;;8.53;100.00
29385;BME280;16367;48.736;9.218;2024-01-25T04:27:31;-23438.19;;;8.53;100.00
29385;BME280;16367;48.736;9.218;2024-01-25T04:29:34;-23437.22;;;8.50;100.00
29385;BME280;16367;48.736;9.218;2024-01-25T04:31:42;-23441.69;;;8.64;100.00
29385;BME280;16367;48.736;9.218;2024-01-25T04:33:46;-23441.19;;;8.63;100.00
29385;BME280;16367;48.736;9.218;2024-01-25T04:35:50;-23434.53;;;8.42;100.00
29385;BME280;16367;48.736;9.218;2024-01-25T04:37:52;-23438.34;;;8.54;100.00
29385;BME280;16367;48.736;9.218;2024-01-25T04:39:55;-23435.81;;;8.46;100.00
29385;BME280;16367;48.736;9.218;2024-01-25T04:41:58;-23433.28;;;8.38;100.00
29385;BME280;16367;48.736;9.218;2024-01-25T04:44:01;-23431.03;;;8.31;100.00
29385;BME280;16367;48.736;9.218;2024-01-25T04:46:04;-23432.94;;;8.37;100.00
29385;BME280;16367;48.736;9.218;2024-01-25T04:48:07;-23433.91;;;8.40;100.00
29385;BME280;16367;48.736;9.218;2024-01-25T04:50:11;-23436.13;;;8.47;100.00
29385;BME280;16367;48.736;9.218;2024-01-25T04:52:14;-23430.72;;;8.30;100.00
29385;BME280;16367;48.736;9.218;2024-01-25T04:54:17;-23429.44;;;8.25;100.00
29385;BME280;16367;48.736;9.218;2024-01-25T04:56:20;-23430.25;;;8.28;100.00
29385;BME280;16367;48.736;9.218;2024-01-25T04:58:23;-23429.63;;;8.26;100.00
29385;BME280;16367;48.736;9.218;2024-01-25T05:00:26;-23433.91;;;8.40;100.00
29385;BME280;16367;48.736;9.218;2024-01-25T05:02:29;-23435.81;;;8.46;100.00
29385;BME280;16367;48.736;9.218;2024-01-25T05:04:32;-23432.63;;;8.36;99.79
29385;BME280;16367;48.736;9.218;2024-01-25T05:06:37;-23433.09;;;8.37;99.78
29385;BME280;16367;48.736;9.218;2024-01-25T05:08:42;-23433.59;;;8.39;98.21
29385;BME280;16367;48.736;9.218;2024-01-25T05:10:44;-23432.94;;;8.37;97.72
29385;BME280;16367;48.736;9.218;2024-01-25T05:12:47;-23433.09;;;8.37;97.95
29385;BME280;16367;48.736;9.218;2024-01-25T05:14:49;-23430.72;;;8.30;97.42
29385;BME280;16367;48.736;9.218;2024-01-25T05:16:52;-23430.56;;;8.29;97.75
29385;BME280;16367;48.736;9.218;2024-01-25T05:18:54;-23424.06;;;8.08;98.42
29385;BME280;16367;48.736;9.218;2024-01-25T05:20:57;-23426.28;;;8.15;97.60
29385;BME280;16367;48.736;9.218;2024-01-25T05:23:01;-23421.50;;;8.00;97.90
29385;BME280;16367;48.736;9.218;2024-01-25T05:25:05;-23423.72;;;8.07;97.57
29385;BME280;16367;48.736;9.218;2024-01-25T05:27:08;-23422.00;;;8.02;97.76
29385;BME280;16367;48.736;9.218;2024-01-25T05:29:10;-23418.34;;;7.90;98.10
29385;BME280;16367;48.736;9.218;2024-01-25T05:31:12;-23417.38;;;7.87;97.70
29385;BME280;16367;48.736;9.218;2024-01-25T05:33:15;-23413.88;;;7.76;98.51
29385;BME280;16367;48.736;9.218;2024-01-25T05:35:18;-23416.09;;;7.83;98.24
29385;BME280;16367;48.736;9.218;2024-01-25T05:37:21;-23415.16;;;7.80;98.48
29385;BME280;16367;48.736;9.218;2024-01-25T05:39:24;-23414.53;;;7.78;99.59
29385;BME280;16367;48.736;9.218;2024-01-25T05:41:27;-23412.31;;;7.71;99.65
29385;BME280;16367;48.736;9.218;2024-01-25T05:43:29;-23410.56;;;7.66;99.15
29385;BME280;16367;48.736;9.218;2024-01-25T05:45:31;-23406.91;;;7.54;100.00
29385;BME280;16367;48.736;9.218;2024-01-25T05:47:35;-23413.25;;;7.74;99.06
29385;BME280;16367;48.736;9.218;2024-01-25T05:49:40;-23412.94;;;7.73;99.12
29385;BME280;16367;48.736;9.218;2024-01-25T05:51:43;-23409.59;;;7.63;98.79
29385;BME280;16367;48.736;9.218;2024-01-25T05:53:45;-23407.22;;;7.55;99.75
29385;BME280;16367;48.736;9.218;2024-01-25T05:55:50;-23405.31;;;7.49;100.00
29385;BME280;16367;48.736;9.218;2024-01-25T05:57:52;-23400.88;;;7.35;100.00
29385;BME280;16367;48.736;9.218;2024-01-25T05:59:55;-23402.94;;;7.41;100.00
29385;BME280;16367;48.736;9.218;2024-01-25T06:01:57;-23402.94;;;7.41;100.00
29385;BME280;16367;48.736;9.218;2024-01-25T06:04:00;-23400.53;;;7.34;100.00
29385;BME280;16367;48.736;9.218;2024-01-25T06:06:03;-23399.59;;;7.31;100.00
29385;BME280;16367;48.736;9.218;2024-01-25T06:08:06;-23399.91;;;7.32;100.00
29385;BME280;16367;48.736;9.218;2024-01-25T06:10:09;-23400.88;;;7.35;100.00
29385;BME280;16367;48.736;9.218;2024-01-25T06:12:14;-23398.97;;;7.29;100.00
29385;BME280;16367;48.736;9.218;2024-01-25T06:14:17;-23399.13;;;7.29;100.00
29385;BME280;16367;48.736;9.218;2024-01-25T06:16:18;-23397.38;;;7.24;100.00
29385;BME280;16367;48.736;9.218;2024-01-25T06:18:21;-23394.81;;;7.16;100.00
29385;BME280;16367;48.736;9.218;2024-01-25T06:20:25;-23393.41;;;7.11;100.00
29385;BME280;16367;48.736;9.218;2024-01-25T06:22:28;-23394.19;;;7.14;100.00
29385;BME280;16367;48.736;9.218;2024-01-25T06:24:30;-23392.75;;;7.09;100.00
29385;BME280;16367;48.736;9.218;2024-01-25T06:26:33;-23391.97;;;7.07;100.00
29385;BME280;16367;48.736;9.218;2024-01-25T06:28:37;-23393.09;;;7.10;100.00
29385;BME280;16367;48.736;9.218;2024-01-25T06:30:42;-23395.16;;;7.17;100.00
29385;BME280;16367;48.736;9.218;2024-01-25T06:32:45;-23391.00;;;7.04;100.00
29385;BME280;16367;48.736;9.218;2024-01-25T06:34:48;-23395.16;;;7.17;100.00
29385;BME280;16367;48.736;9.218;2024-01-25T06:36:51;-23392.59;;;7.09;100.00
29385;BME280;16367;48.736;9.218;2024-01-25T06:38:54;-23391.16;;;7.04;100.00
29385;BME280;16367;48.736;9.218;2024-01-25T06:40:57;-23391.16;;;7.04;100.00
29385;BME280;16367;48.736;9.218;2024-01-25T06:43:00;-23389.59;;;6.99;100.00
29385;BME280;16367;48.736;9.218;2024-01-25T06:45:05;-23390.69;;;7.03;100.00
29385;BME280;16367;48.736;9.218;2024-01-25T06:47:08;-23390.06;;;7.01;100.00
29385;BME280;16367;48.736;9.218;2024-01-25T06:49:10;-23387.84;;;6.94;100.00
29385;BME280;16367;48.736;9.218;2024-01-25T06:51:13;-23388.94;;;6.97;100.00
29385;BME280;16367;48.736;9.218;2024-01-25T06:53:16;-23390.06;;;7.01;100.00
29385;BME280;16367;48.736;9.218;2024-01-25T06:55:18;-23389.75;;;7.00;100.00
29385;BME280;16367;48.736;9.218;2024-01-25T06:57:23;-23388.47;;;6.96;100.00
29385;BME280;16367;48.736;9.218;2024-01-25T06:59:25;-23384.97;;;6.85;100.00
29385;BME280;16367;48.736;9.218;2024-01-25T07:01:30;-23387.84;;;6.94;100.00
29385;BME280;16367;48.736;9.218;2024-01-25T07:03:33;-23385.28;;;6.86;100.00
29385;BME280;16367;48.736;9.218;2024-01-25T07:05:36;-23387.19;;;6.92;100.00
29385;BME280;16367;48.736;9.218;2024-01-25T07:07:39;-23386.25;;;6.89;100.00
29385;BME280;16367;48.736;9.218;2024-01-25T07:09:42;-23384.50;;;6.83;100.00
29385;BME280;16367;48.736;9.218;2024-01-25T07:11:44;-23385.59;;;6.87;100.00
29385;BME280;16367;48.736;9.218;2024-01-25T07:13:47;-23384.97;;;6.85;100.00
29385;BME280;16367;48.736;9.218;2024-01-25T07:15:50;-23384.97;;;6.85;100.00
29385;BME280;16367;48.736;9.218;2024-01-25T07:17:54;-23381.47;;;6.73;100.00
29385;BME280;16367;48.736;9.218;2024-01-25T07:19:57;-23382.91;;;6.78;100.00
29385;BME280;16367;48.736;9.218;2024-01-25T07:22:00;-23383.38;;;6.80;100.00
29385;BME280;16367;48.736;9.218;2024-01-25T07:24:03;-23384.03;;;6.82;100.00
29385;BME280;16367;48.736;9.218;2024-01-25T07:26:06;-23379.88;;;6.68;100.00
29385;BME280;16367;48.736;9.218;2024-01-25T07:28:09;-23381.47;;;6.73;100.00
29385;BME280;16367;48.736;9.218;2024-01-25T07:30:13;-23381.16;;;6.72;100.00
29385;BME280;16367;48.736;9.218;2024-01-25T07:32:15;-23384.03;;;6.82;100.00
29385;BME280;16367;48.736;9.218;2024-01-25T07:34:19;-23383.69;;;6.81;100.00
29385;BME280;16367;48.736;9.218;2024-01-25T07:36:22;-23382.13;;;6.75;100.00
29385;BME280;16367;48.736;9.218;2024-01-25T07:38:26;-23382.91;;;6.78;100.00
29385;BME280;16367;48.736;9.218;2024-01-25T07:40:29;-23382.13;;;6.75;100.00
29385;BME280;16367;48.736;9.218;2024-01-25T07:42:32;-23383.06;;;6.78;100.00
29385;BME280;16367;48.736;9.218;2024-01-25T07:44:35;-23385.44;;;6.86;100.00
29385;BME280;16367;48.736;9.218;2024-01-25T07:46:36;-23385.94;;;6.88;100.00
29385;BME280;16367;48.736;9.218;2024-01-25T07:48:39;-23389.75;;;7.00;100.00
29385;BME280;16367;48.736;9.218;2024-01-25T07:50:44;-23387.19;;;6.92;100.00
29385;BME280;16367;48.736;9.218;2024-01-25T07:52:47;-23391.34;;;7.05;100.00
29385;BME280;16367;48.736;9.218;2024-01-25T07:54:51;-23394.50;;;7.15;100.00
29385;BME280;16367;48.736;9.218;2024-01-25T07:56:55;-23395.78;;;7.19;100.00
29385;BME280;16367;48.736;9.218;2024-01-25T07:58:58;-23399.44;;;7.30;100.00
29385;BME280;16367;48.736;9.218;2024-01-25T08:01:03;-23405.00;;;7.48;100.00
29385;BME280;16367;48.736;9.218;2024-01-25T08:03:06;-23417.53;;;7.88;100.00
29385;BME280;16367;48.736;9.218;2024-01-25T08:05:09;-23421.50;;;8.00;100.00
29385;BME280;16367;48.736;9.218;2024-01-25T08:07:13;-23418.97;;;7.92;100.00
29385;BME280;16367;48.736;9.218;2024-01-25T08:09:16;-23413.56;;;7.75;100.00
29385;BME280;16367;48.736;9.218;2024-01-25T08:11:20;-23414.53;;;7.78;100.00
29385;BME280;16367;48.736;9.218;2024-01-25T08:13:22;-23420.56;;;7.97;100.00
29385;BME280;16367;48.736;9.218;2024-01-25T08:15:25;-23433.59;;;8.39;99.18
29385;BME280;16367;48.736;9.218;2024-01-25T08:17:28;-23433.91;;;8.40;98.84
29385;BME280;16367;48.736;9.218;2024-01-25T08:19:31;-23439.47;;;8.57;97.24
29385;BME280;16367;48.736;9.218;2024-01-25T08:21:34;-23452.31;;;8.98;95.01
29385;BME280;16367;48.736;9.218;2024-01-25T08:23:39;-23460.56;;;9.24;93.43
29385;BME280;16367;48.736;9.218;2024-01-25T08:25:42;-23458.97;;;9.19;91.78
29385;BME280;16367;48.736;9.218;2024-01-25T08:27:45;-23462.94;;;9.32;91.15
29385;BME280;16367;48.736;9.218;2024-01-25T08:29:48;-23461.19;;;9.26;90.23
29385;BME280;16367;48.736;9.218;2024-01-25T08:31:50;-23485.44;;;10.03;88.75
29385;BME280;16367;48.736;9.218;2024-01-25T08:33:52;-23491.31;;;10.22;87.45
29385;BME280;16367;48.736;9.218;2024-01-25T08:35:56;-23484.81;;;10.01;86.63
29385;BME280;16367;48.736;9.218;2024-01-25T08:37:59;-23484.19;;;9.99;86.08
29385;BME280;16367;48.736;9.218;2024-01-25T08:40:04;-23480.84;;;9.89;86.25
29385;BME280;16367;48.736;9.218;2024-01-25T08:42:08;-23473.88;;;9.66;87.76
29385;BME280;16367;48.736;9.218;2024-01-25T08:44:12;-23494.31;;;10.31;86.17
29385;BME280;16367;48.736;9.218;2024-01-25T08:46:15;-23497.03;;;10.40;83.76
29385;BME280;16367;48.736;9.218;2024-01-25T08:48:18;-23507.31;;;10.73;81.96
29385;BME280;16367;48.736;9.218;2024-01-25T08:50:21;-23505.25;;;10.66;82.41
29385;BME280;16367;48.736;9.218;2024-01-25T08:52:27;-23526.31;;;11.33;81.22
29385;BME280;16367;48.736;9.218;2024-01-25T08:54:30;-23523.00;;;11.22;80.04
29385;BME280;16367;48.736;9.218;2024-01-25T08:56:35;-23513.19;;;10.91;79.01
29385;BME280;16367;48.736;9.218;2024-01-25T08:58:37;-23514.13;;;10.94;78.24
29385;BME280;16367;48.736;9.218;2024-01-25T09:00:40;-23517.63;;;11.05;79.83
29385;BME280;16367;48.736;9.218;2024-01-25T09:02:43;-23533.44;;;11.56;76.30
29385;BME280;16367;48.736;9.218;2024-01-25T09:04:46;-23533.91;;;11.57;75.85
29385;BME280;16367;48.736;9.218;2024-01-25T09:06:48;-23534.38;;;11.59;75.81
29385;BME280;16367;48.736;9.218;2024-01-25T09:08:51;-23525.84;;;11.32;75.74
29385;BME280;16367;48.736;9.218;2024-01-25T09:10:53;-23560.66;;;12.42;73.03
29385;BME280;16367;48.736;9.218;2024-01-25T09:12:57;-23560.50;;;12.42;71.15
29385;BME280;16367;48.736;9.218;2024-01-25T09:15:00;-23549.59;;;12.07;71.95
29385;BME280;16367;48.736;9.218;2024-01-25T09:17:03;-23568.72;;;12.68;70.59
29385;BME280;16367;48.736;9.218;2024-01-25T09:19:06;-23551.66;;;12.14;70.67
29385;BME280;16367;48.736;9.218;2024-01-25T09:21:09;-23505.72;;;10.68;74.40
29385;BME280;16367;48.736;9.218;2024-01-25T09:23:12;-23542.63;;;11.85;73.67
29385;BME280;16367;48.736;9.218;2024-01-25T09:25:15;-23582.31;;;13.11;69.79
29385;BME280;16367;48.736;9.218;2024-01-25T09:27:18;-23579.47;;;13.02;67.67
29385;BME280;16367;48.736;9.218;2024-01-25T09:29:22;-23546.25;;;11.96;71.16
29385;BME280;16367;48.736;9.218;2024-01-25T09:31:25;-23517.63;;;11.05;74.81
29385;BME280;16367;48.736;9.218;2024-01-25T09:33:28;-23527.44;;;11.37;74.28
29385;BME280;16367;48.736;9.218;2024-01-25T09:35:31;-23560.66;;;12.42;70.04
29385;BME280;16367;48.736;9.218;2024-01-25T09:37:35;-23550.69;;;12.11;68.68
29385;BME280;16367;48.736;9.218;2024-01-25T09:39:37;-23517.78;;;11.06;70.70
29385;BME280;16367;48.736;9.218;2024-01-25T09:41:40;-23565.72;;;12.58;69.52
29385;BME280;16367;48.736;9.218;2024-01-25T09:43:46;-23547.06;;;11.99;69.40
29385;BME280;16367;48.736;9.218;2024-01-25T09:45:53;-23534.06;;;11.58;71.07
29385;BME280;16367;48.736;9.218;2024-01-25T09:47:57;-23499.88;;;10.49;74.37
29385;BME280;16367;48.736;9.218;2024-01-25T09:50:00;-23496.06;;;10.37;76.31
29385;BME280;16367;48.736;9.218;2024-01-25T09:52:04;-23506.22;;;10.69;74.41
29385;BME280;16367;48.736;9.218;2024-01-25T09:54:08;-23501.47;;;10.54;74.19
29385;BME280;16367;48.736;9.218;2024-01-25T09:56:12;-23487.34;;;10.09;75.29
29385;BME280;16367;48.736;9.218;2024-01-25T09:58:15;-23466.09;;;9.42;79.46
29385;BME280;16367;48.736;9.218;2024-01-25T10:00:17;-23477.69;;;9.78;78.52
29385;BME280;16367;48.736;9.218;2024-01-25T10:02:23;-23463.88;;;9.35;79.64
29385;BME280;16367;48.736;9.218;2024-01-25T10:04:26;-23483.72;;;9.98;77.73
29385;BME280;16367;48.736;9.218;2024-01-25T10:06:28;-23462.47;;;9.30;80.36
29385;BME280;16367;48.736;9.218;2024-01-25T10:08:31;-23481.16;;;9.90;79.56
29385;BME280;16367;48.736;9.218;2024-01-25T10:10:32;-23477.53;;;9.78;80.60
29385;BME280;16367;48.736;9.218;2024-01-25T10:12:36;-23481.47;;;9.91;79.03
29385;BME280;16367;48.736;9.218;2024-01-25T10:14:40;-23491.63;;;10.23;79.52
29385;BME280;16367;48.736;9.218;2024-01-25T10:16:42;-23492.91;;;10.27;78.33
29385;BME280;16367;48.736;9.218;2024-01-25T10:18:47;-23506.53;;;10.70;76.33
29385;BME280;16367;48.736;9.218;2024-01-25T10:20:52;-23487.34;;;10.09;77.38
29385;BME280;16367;48.736;9.218;2024-01-25T10:22:56;-23485.91;;;10.05;79.02
29385;BME280;16367;48.736;9.218;2024-01-25T10:25:01;-23487.50;;;10.10;78.26
29385;BME280;16367;48.736;9.218;2024-01-25T10:27:04;-23480.69;;;9.88;79.42
29385;BME280;16367;48.736;9.218;2024-01-25T10:29:08;-23490.03;;;10.18;78.45
29385;BME280;16367;48.736;9.218;2024-01-25T10:31:12;-23488.78;;;10.14;78.80
29385;BME280;16367;48.736;9.218;2024-01-25T10:33:15;-23484.34;;;10.00;80.21
29385;BME280;16367;48.736;9.218;2024-01-25T10:35:20;-23502.88;;;10.59;78.59
29385;BME280;16367;48.736;9.218;2024-01-25T10:37:27;-23497.03;;;10.40;77.36
29385;BME280;16367;48.736;9.218;2024-01-25T10:39:31;-23492.59;;;10.26;78.29
29385;BME280;16367;48.736;9.218;2024-01-25T10:41:34;-23500.19;;;10.50;77.94
29385;BME280;16367;48.736;9.218;2024-01-25T10:43:37;-23499.25;;;10.47;76.45
29385;BME280;16367;48.736;9.218;2024-01-25T10:45:41;-23505.09;;;10.66;76.74
29385;BME280;16367;48.736;9.218;2024-01-25T10:47:48;-23503.69;;;10.61;75.30